createdAt,value
2023-04-10T00:02:22.311Z,11.40
2023-04-10T00:07:24.169Z,11.40
2023-04-10T00:12:26.223Z,11.40
2023-04-10T00:17:27.995Z,11.30
2023-04-10T00:22:29.726Z,11.30
2023-04-10T00:27:31.563Z,11.30
2023-04-10T00:32:33.411Z,11.20
2023-04-10T00:37:35.996Z,11.20
2023-04-10T00:42:37.754Z,11.20
2023-04-10T00:47:39.623Z,11.20
2023-04-10T00:52:41.492Z,11.10
2023-04-10T00:57:48.400Z,11.10
2023-04-10T01:02:50.455Z,11.00
2023-04-10T01:08:09.094Z,11.00
2023-04-10T01:13:27.833Z,10.90
2023-04-10T01:18:40.708Z,10.90
2023-04-10T01:24:07.655Z,10.90
2023-04-10T01:29:14.217Z,10.80
2023-04-10T01:34:20.491Z,10.80
2023-04-10T01:39:23.993Z,10.60
2023-04-10T01:44:29.353Z,10.70
2023-04-10T01:49:33.255Z,10.70
2023-04-10T01:54:35.883Z,10.60
2023-04-10T01:59:39.624Z,10.60
2023-04-10T02:04:41.442Z,10.70
2023-04-10T02:09:58.295Z,10.70
2023-04-10T02:15:02.526Z,10.60
2023-04-10T02:20:06.617Z,10.50
2023-04-10T02:25:08.790Z,10.50
2023-04-10T02:30:10.976Z,10.50
2023-04-10T02:35:12.762Z,10.30
2023-04-10T02:40:14.530Z,10.30
2023-04-10T02:45:16.360Z,10.20
2023-04-10T02:50:18.359Z,10.30
2023-04-10T02:55:20.331Z,10.30
2023-04-10T03:00:23.085Z,10.20
2023-04-10T03:05:24.834Z,10.10
2023-04-10T03:10:26.707Z,10.10
2023-04-10T03:15:28.464Z,9.90
2023-04-10T03:20:30.234Z,9.90
2023-04-10T03:25:34.638Z,10.00
2023-04-10T03:30:37.270Z,10.00
2023-04-10T03:35:39.217Z,9.90
2023-04-10T03:40:40.979Z,9.90
2023-04-10T03:45:42.876Z,9.70
2023-04-10T03:50:44.762Z,9.90
2023-04-10T03:55:46.805Z,9.80
2023-04-10T04:00:48.728Z,9.70
2023-04-10T04:05:50.966Z,9.90
2023-04-10T04:10:52.891Z,9.80
2023-04-10T04:15:54.654Z,9.70
2023-04-10T04:20:56.458Z,9.50
2023-04-10T04:25:59.503Z,9.50
2023-04-10T04:31:02.706Z,9.60
2023-04-10T04:36:04.759Z,9.60
2023-04-10T04:41:06.730Z,9.50
2023-04-10T04:46:08.612Z,9.60
2023-04-10T04:51:10.393Z,9.70
2023-04-10T04:56:12.199Z,9.60
2023-04-10T05:01:13.981Z,9.70
2023-04-10T05:06:15.903Z,9.70
2023-04-10T05:11:17.730Z,9.70
2023-04-10T05:16:19.510Z,9.60
2023-04-10T05:21:23.053Z,9.60
2023-04-10T05:26:24.818Z,9.70
2023-04-10T05:31:26.649Z,9.70
2023-04-10T05:36:28.449Z,9.70
2023-04-10T05:41:30.377Z,9.70
2023-04-10T05:46:32.231Z,9.80
2023-04-10T05:51:33.988Z,9.80
2023-04-10T05:56:35.806Z,9.80
2023-04-10T06:01:37.745Z,9.90
2023-04-10T06:06:39.565Z,9.90
2023-04-10T06:11:41.469Z,10.00
2023-04-10T06:16:43.388Z,10.10
2023-04-10T06:21:45.461Z,10.20
2023-04-10T06:26:47.313Z,10.30
2023-04-10T06:31:49.377Z,10.30
2023-04-10T06:36:52.208Z,10.40
2023-04-10T06:41:53.953Z,10.50
2023-04-10T06:46:57.387Z,10.40
2023-04-10T06:51:59.199Z,10.40
2023-04-10T06:57:01.115Z,10.50
2023-04-10T07:02:06.196Z,10.60
2023-04-10T07:07:10.020Z,10.60
2023-04-10T07:12:11.815Z,10.70
2023-04-10T07:17:13.745Z,10.70
2023-04-10T07:22:15.894Z,10.90
2023-04-10T07:27:18.148Z,10.90
2023-04-10T07:32:20.048Z,11.00
2023-04-10T07:37:22.113Z,11.10
2023-04-10T07:42:23.915Z,11.20
2023-04-10T07:47:25.806Z,11.40
2023-04-10T07:52:27.588Z,11.50
2023-04-10T07:57:29.439Z,11.40
2023-04-10T08:02:31.326Z,11.50
2023-04-10T08:07:33.270Z,11.60
2023-04-10T08:12:35.111Z,11.80
2023-04-10T08:17:37.407Z,11.80
2023-04-10T08:22:39.282Z,11.90
2023-04-10T08:27:41.180Z,12.00
2023-04-10T08:32:44.402Z,12.20
2023-04-10T08:37:49.630Z,12.20
2023-04-10T08:42:55.627Z,12.40
2023-04-10T08:47:59.633Z,12.60
2023-04-10T08:53:08.590Z,12.60
2023-04-10T08:58:11.845Z,12.80
2023-04-10T09:03:16.211Z,12.90
2023-04-10T09:08:18.107Z,12.90
2023-04-10T09:13:36.970Z,13.00
2023-04-10T09:18:47.880Z,13.00
2023-04-10T09:23:59.439Z,13.10
2023-04-10T09:29:10.464Z,13.30
2023-04-10T09:34:17.571Z,13.40
2023-04-10T09:39:19.429Z,13.50
2023-04-10T09:44:31.400Z,13.70
2023-04-10T09:50:05.601Z,13.80
2023-04-10T09:55:08.745Z,13.80
2023-04-10T10:00:14.280Z,14.00
2023-04-10T10:05:16.418Z,14.00
2023-04-10T10:10:18.540Z,14.20
2023-04-10T10:15:27.119Z,14.60
2023-04-10T10:20:32.897Z,14.90
2023-04-10T10:25:36.640Z,15.00
2023-04-10T10:30:38.712Z,15.00
2023-04-10T10:35:41.729Z,15.10
2023-04-10T10:40:54.827Z,15.60
2023-04-10T10:46:03.965Z,15.90
2023-04-10T10:51:06.027Z,16.00
2023-04-10T10:56:19.929Z,16.00
2023-04-10T11:01:22.334Z,16.20
2023-04-10T11:06:48.691Z,16.40
2023-04-10T11:12:00.494Z,16.70
2023-04-10T11:17:02.302Z,16.90
2023-04-10T11:22:07.473Z,16.60
2023-04-10T11:27:09.278Z,16.60
2023-04-10T11:32:11.351Z,16.60
2023-04-10T11:37:24.279Z,16.60
2023-04-10T11:42:26.144Z,16.70
2023-04-10T11:47:28.023Z,16.80
2023-04-10T11:52:30.752Z,16.90
2023-04-10T11:57:35.351Z,17.20
2023-04-10T12:02:52.203Z,17.40
2023-04-10T12:07:55.620Z,17.20
2023-04-10T12:12:57.597Z,17.20
2023-04-10T12:17:59.490Z,17.30
2023-04-10T12:23:03.119Z,17.40
2023-04-10T12:28:04.961Z,17.30
2023-04-10T12:33:07.645Z,17.10
2023-04-10T12:38:09.575Z,17.00
2023-04-10T12:43:11.739Z,16.90
2023-04-10T12:48:23.451Z,16.90
2023-04-10T12:53:26.352Z,16.90
2023-04-10T12:58:29.163Z,16.90
2023-04-10T13:03:32.060Z,16.90
2023-04-10T13:08:35.004Z,16.90
2023-04-10T13:13:36.898Z,16.80
2023-04-10T13:18:38.970Z,16.80
2023-04-10T13:23:42.716Z,16.70
2023-04-10T13:28:44.548Z,16.70
2023-04-10T13:33:48.095Z,16.60
2023-04-10T13:38:49.864Z,16.60
2023-04-10T13:43:51.764Z,16.50
2023-04-10T13:48:53.627Z,16.50
2023-04-10T13:53:55.869Z,16.60
2023-04-10T13:58:57.612Z,16.60
2023-04-10T14:03:59.386Z,16.60
2023-04-10T14:09:01.206Z,16.60
2023-04-10T14:14:02.962Z,16.70
2023-04-10T14:19:04.767Z,16.70
2023-04-10T14:24:06.757Z,16.90
2023-04-10T14:29:09.101Z,16.80
2023-04-10T14:34:10.940Z,16.70
2023-04-10T14:39:12.795Z,16.70
2023-04-10T14:44:14.558Z,16.70
2023-04-10T14:49:16.406Z,16.60
2023-04-10T14:54:21.672Z,16.60
2023-04-10T14:59:23.619Z,16.50
2023-04-10T15:04:25.563Z,16.50
2023-04-10T15:09:27.413Z,16.50
2023-04-10T15:14:29.448Z,16.40
2023-04-10T15:19:31.234Z,16.20
2023-04-10T15:24:43.351Z,16.00
2023-04-10T15:29:51.500Z,15.60
2023-04-10T15:34:53.277Z,15.30
2023-04-10T15:39:55.191Z,15.30
2023-04-10T15:44:56.955Z,15.30
2023-04-10T15:49:59.160Z,15.30
2023-04-10T15:55:01.163Z,15.20
2023-04-10T16:00:04.319Z,15.10
2023-04-10T16:05:09.359Z,15.00
2023-04-10T16:10:11.592Z,14.80
2023-04-10T16:15:13.794Z,14.60
2023-04-10T16:20:15.626Z,14.60
2023-04-10T16:25:18.063Z,14.20
2023-04-10T16:30:23.508Z,13.90
2023-04-10T16:35:25.393Z,13.50
2023-04-10T16:40:32.180Z,13.20
2023-04-10T16:45:34.087Z,12.90
2023-04-10T16:50:36.630Z,12.80
2023-04-10T16:55:38.400Z,12.60
2023-04-10T17:00:40.198Z,12.40
2023-04-10T17:05:42.011Z,12.30
2023-04-10T17:10:43.817Z,12.30
2023-04-10T17:15:45.647Z,12.30
2023-04-10T17:20:48.411Z,12.30
2023-04-10T17:25:50.436Z,12.40
2023-04-10T17:30:52.301Z,12.40
2023-04-10T17:35:55.472Z,12.40
2023-04-10T17:40:57.258Z,12.40
2023-04-10T17:45:59.063Z,12.30
2023-04-10T17:51:06.448Z,12.30
2023-04-10T17:56:08.424Z,12.30
2023-04-10T18:01:10.478Z,12.20
2023-04-10T18:06:12.234Z,12.00
2023-04-10T18:11:14.002Z,12.10
2023-04-10T18:16:17.425Z,12.00
2023-04-10T18:21:19.247Z,11.90
2023-04-10T18:26:21.331Z,11.90
2023-04-10T18:31:23.115Z,11.90
2023-04-10T18:36:26.304Z,11.90
2023-04-10T18:41:28.097Z,11.80
2023-04-10T18:46:30.264Z,11.80
2023-04-10T18:51:34.620Z,11.80
2023-04-10T18:56:38.289Z,11.90
2023-04-10T19:01:40.191Z,11.80
2023-04-10T19:06:43.791Z,11.70
2023-04-10T19:11:45.808Z,11.60
2023-04-10T19:16:47.891Z,11.80
2023-04-10T19:21:49.648Z,11.70
2023-04-10T19:26:54.120Z,11.80
2023-04-10T19:31:57.646Z,11.70
2023-04-10T19:36:59.386Z,11.70
2023-04-10T19:42:03.273Z,11.70
2023-04-10T19:47:05.331Z,11.70
2023-04-10T19:52:08.577Z,11.60
2023-04-10T19:57:11.208Z,11.50
2023-04-10T20:02:15.671Z,11.60
2023-04-10T20:07:17.731Z,11.40
2023-04-10T20:12:19.544Z,11.40
2023-04-10T20:17:21.462Z,11.40
2023-04-10T20:22:23.503Z,11.30
2023-04-10T20:27:25.395Z,11.40
2023-04-10T20:32:27.287Z,11.20
2023-04-10T20:37:29.071Z,11.30
2023-04-10T20:42:31.228Z,11.30
2023-04-10T20:47:33.115Z,11.20
2023-04-10T20:52:34.907Z,11.20
2023-04-10T20:57:36.718Z,11.00
2023-04-10T21:02:38.972Z,11.10
2023-04-10T21:07:41.077Z,11.10
2023-04-10T21:12:43.137Z,11.10
2023-04-10T21:17:44.982Z,10.90
2023-04-10T21:22:46.719Z,11.00
2023-04-10T21:27:48.470Z,11.10
2023-04-10T21:32:50.312Z,11.10
2023-04-10T21:37:57.608Z,11.10
2023-04-10T21:43:03.792Z,11.10
2023-04-10T21:48:05.798Z,11.10
2023-04-10T21:53:07.786Z,11.10
2023-04-10T21:58:09.604Z,11.10
2023-04-10T22:03:11.952Z,11.10
2023-04-10T22:08:14.052Z,11.00
2023-04-10T22:18:20.565Z,10.90
2023-04-10T22:23:22.696Z,10.90
2023-04-10T22:28:24.543Z,11.00
2023-04-10T22:33:26.401Z,10.80
2023-04-10T22:38:28.170Z,10.80
2023-04-10T22:43:29.931Z,10.70
2023-04-10T22:48:32.602Z,10.70
2023-04-10T22:53:34.674Z,10.60
2023-04-10T22:58:39.309Z,10.60
2023-04-10T23:03:41.219Z,10.50
2023-04-10T23:08:42.970Z,10.50
2023-04-10T23:13:44.759Z,10.40
2023-04-10T23:18:46.530Z,10.30
2023-04-10T23:23:48.467Z,10.30
2023-04-10T23:28:50.258Z,10.30
2023-04-10T23:33:52.232Z,10.20
2023-04-10T23:38:54.367Z,10.10
2023-04-10T23:43:56.613Z,10.20
2023-04-10T23:48:58.367Z,10.10
2023-04-10T23:54:00.232Z,10.20
2023-04-10T23:59:02.092Z,10.20
